Pagrindinis puslapis
METAR-TAF:

METAR-TAF

Oro uostai :

Jaroslavlis, Rusija

platuma: 57-33-38N, ilguma: 040-09-27E, Aukštis: 87 m

Dabartinis oras

Ataskaita buvo paskelbta 18 minutes, ne 08:00 UTC
Vėjas 6 kt iš Šiaurės/Šiaurės Rytų
Temperatūra 7°C
Drėgmė 100%
Slėgis 1013 hPa
Matomumas: 1400 m
Apsiniaukę ne aukštis 300 ft
dulksna, rūkana

METAR: UUDL 180800Z 02003MPS 1400 R23/1400D DZ BR OVC003 07/07 Q1013 R23/290150 NOSIG RMK QBB100 QFE752

Laikas: 11:18 (08:18 UTC)

Prognozė

Ataskaita buvo paskelbta 1 valandą ir 33 minutes, ne 06:45 UTC
Prognozė galioja nuo 18 metu 06 UTC su 19 metu 06 UTC
Vėjas 6 kt iš Šiaurės
Matomumas: 6000 m
Apsiniaukę ne aukštis 1100 ft
Laikinai
nuo 18 metu 06 UTC su 18 metu 12 UTC
Matomumas: 2100 m
Išsisklaidę debesys ne aukštis 300 ft
Su prošvaistėmis ne aukštis 1000 ft, Liūtiniai kamuoliniai debesys.
lietus, rūkana

TAF: UUDL 180645Z 1806/1906 36003MPS 6000 OVC011 TEMPO 1806/1812 2100 -SHRA BR SCT003 BKN010CB

Orai ataskaitas ir orų prognozės (METAR, TAF).

turimą stotys yra geltonos ir raudonos taškus žemėlapyje.

Perkelti pele per norėdami pamatyti stoties vardą.

Tada spustelėkite, norėdami matyti oro stebėjimo ir prognozės.

Norėdami pakeisti žemėlapį: spustelėkite ant žalios mygtukų su juodo kryžiaus žemyn,; žalią mygtuką su brūkšneliu, jei norite nutolinti; arba žalių rodyklių gretimoms žemėlapius.


METAR-TAF: